Bookmark and Share
Track history (hours):
 

Josephine Anne

More information available from US FCC via Universal Licensing System and Coast Guard Vessel Documentation Center.

Last reported at 2014-Apr-10 12:11 UTC. Time now 2014-Apr-17 15:35 UTC.
Position N 29°58' W 090°15'.

Length 29 m; draft 4.3 m.

Type: Tug. MMSI: 367317270.

NotesDate/timePositionNaut miles runAvg speedWind from/ knotsBaromVisibWave heightAir tempDewpointWater temp
2014-Apr-10 12:11N 29°58' W 090°15'0 0.3
2014-Apr-10 11:04N 29°58' W 090°15'  
2014-Apr-07 12:33N 29°57' W 090°23'0 0.0
2014-Apr-07 11:33N 29°57' W 090°23'0 0.0
2014-Apr-07 10:33N 29°57' W 090°23'0 0.0
2014-Apr-07 09:33N 29°57' W 090°23'0 0.0
2014-Apr-07 08:33N 29°57' W 090°23'0 0.0
2014-Apr-07 07:33N 29°57' W 090°23'0 0.0
2014-Apr-07 06:33N 29°57' W 090°23'0 0.0
2014-Apr-07 05:33N 29°57' W 090°23'0 0.0
2014-Apr-07 04:33N 29°57' W 090°23'0 0.0
2014-Apr-07 03:32N 29°57' W 090°23'0 0.0
2014-Apr-07 02:32N 29°57' W 090°23'0 0.0
2014-Apr-07 01:32N 29°57' W 090°23'2 2.3
2014-Apr-07 00:28N 29°56' W 090°20'4 1.2
2014-Apr-06 21:14N 29°59' W 090°24'0 0.0
2014-Apr-06 20:33N 29°59' W 090°24'5 1.9
2014-Apr-06 18:12N 30°01' W 090°28'6 8.4
2014-Apr-06 17:33N 30°03' W 090°34'0 0.0
2014-Apr-06 16:33N 30°03' W 090°34'0 0.0
2014-Apr-06 15:33N 30°03' W 090°34'0 0.0
2014-Apr-06 14:33N 30°03' W 090°34'0 0.0
2014-Apr-06 13:33N 30°03' W 090°34'0 0.0
2014-Apr-06 12:33N 30°03' W 090°34'0 0.0
2014-Apr-06 11:33N 30°03' W 090°34'0 0.0
2014-Apr-06 10:33N 30°03' W 090°34'0 0.0
2014-Apr-06 09:33N 30°03' W 090°34'0 0.0
2014-Apr-06 08:33N 30°03' W 090°34'0 0.0
2014-Apr-06 07:33N 30°03' W 090°34'0 0.0
2014-Apr-06 06:33N 30°03' W 090°34'2 1.6
2014-Apr-06 05:33N 30°03' W 090°36'0 0.0
2014-Apr-06 04:33N 30°03' W 090°36'1 0.9
2014-Apr-06 03:33N 30°03' W 090°35'1 0.7
2014-Apr-06 02:33N 30°03' W 090°34'0 0.0
2014-Apr-06 01:33N 30°03' W 090°34'0 0.0
2014-Apr-06 00:33N 30°03' W 090°34'0 0.0
2014-Apr-05 23:33N 30°03' W 090°34'11 9.8
2014-Apr-05 22:29N 30°01' W 090°46'3 0.2
2014-Apr-05 09:33N 30°01' W 090°43'7 7.3
2014-Apr-05 08:34N 30°03' W 090°35'0 0.5
2014-Apr-05 07:34N 30°03' W 090°34'0 0.0
2014-Apr-05 06:34N 30°03' W 090°34'0 0.0
2014-Apr-05 05:33N 30°03' W 090°34'0 0.0
2014-Apr-05 04:34N 30°03' W 090°34'0 0.0
2014-Apr-05 03:33N 30°03' W 090°34'0 0.0
2014-Apr-05 02:33N 30°03' W 090°34'6 6.5
2014-Apr-05 01:33N 29°60' W 090°28'3 3.2
2014-Apr-05 00:34N 29°59' W 090°24'2 1.8
2014-Apr-04 23:33N 29°58' W 090°24'1 1.1
2014-Apr-04 22:33N 29°57' W 090°23'11 5.5
2014-Apr-04 20:33N 30°03' W 090°33'1 0.7
2014-Apr-04 19:33N 30°03' W 090°34'0 0.0
2014-Apr-04 18:33N 30°03' W 090°34'1 0.7
2014-Apr-04 17:34N 30°03' W 090°35'1 0.6
2014-Apr-04 16:33N 30°03' W 090°34'1 0.7
2014-Apr-04 15:34N 30°03' W 090°35'0 0.0
2014-Apr-04 14:34N 30°03' W 090°35'1 0.7
2014-Apr-04 13:33N 30°03' W 090°34'0 0.0
2014-Apr-04 12:33N 30°03' W 090°34'1 0.6
2014-Apr-04 11:33N 30°03' W 090°35'0 0.1
2014-Apr-04 10:33N 30°03' W 090°35'1 0.5
2014-Apr-04 09:33N 30°03' W 090°34'0 0.0
2014-Apr-04 08:33N 30°03' W 090°34'0 0.0
2014-Apr-04 07:33N 30°03' W 090°34'0 0.0
2014-Apr-04 06:33N 30°03' W 090°34'0 0.0
2014-Apr-04 05:33N 30°03' W 090°34'2 2.1
2014-Apr-04 04:33N 30°02' W 090°36'0 0.1
2014-Apr-04 03:33N 30°03' W 090°36'0 0.0
2014-Apr-04 02:33N 30°03' W 090°36'1 0.5
2014-Apr-04 01:34N 30°03' W 090°36'2 1.5
2014-Apr-04 00:33N 30°03' W 090°34'2 1.6
2014-Apr-03 23:33N 30°03' W 090°32'1 0.8
2014-Apr-03 22:33N 30°03' W 090°32'1 1.2
2014-Apr-03 21:34N 30°03' W 090°33'1 1.1
2014-Apr-03 20:33N 30°03' W 090°34'0 0.0
2014-Apr-03 19:33N 30°03' W 090°34'0 0.0
2014-Apr-03 18:33N 30°03' W 090°34'0 0.0
2014-Apr-03 17:33N 30°03' W 090°34'0 0.0
2014-Apr-03 16:34N 30°03' W 090°34'0 0.0
2014-Apr-03 15:33N 30°03' W 090°34'0 0.0
2014-Apr-03 14:33N 30°03' W 090°34'0 0.0
2014-Apr-03 13:33N 30°03' W 090°34'0 0.0
2014-Apr-03 12:33N 30°03' W 090°34'0 0.0
2014-Apr-03 11:34N 30°03' W 090°34'0 0.0
2014-Apr-03 10:33N 30°03' W 090°34'0 0.0
2014-Apr-03 09:34N 30°03' W 090°34'5 5.2
2014-Apr-03 08:33N 30°02' W 090°28'8 7.4
2014-Apr-03 07:32N 29°56' W 090°22'2 2.1
2014-Apr-03 06:30N 29°56' W 090°20'4 2.0
2014-Apr-03 04:33N 29°57' W 090°24'1010.4
2014-Apr-03 03:33N 30°03' W 090°34'0 0.3
2014-Apr-03 02:33N 30°03' W 090°34'1 0.5
2014-Apr-03 01:33N 30°03' W 090°34'1 0.6
2014-Apr-03 00:33N 30°03' W 090°34'1 1.1
2014-Apr-02 23:33N 30°03' W 090°35'0 0.2
2014-Apr-02 22:33N 30°03' W 090°35'1 1.0
2014-Apr-02 21:33N 30°03' W 090°34'1 1.3
2014-Apr-02 20:33N 30°03' W 090°36'1 1.3
2014-Apr-02 19:33N 30°03' W 090°34'0 0.0
2014-Apr-02 18:33N 30°03' W 090°34'0 0.0
2014-Apr-02 17:33N 30°03' W 090°34'1 0.7
2014-Apr-02 16:33N 30°03' W 090°35'1 0.2
2014-Apr-02 13:08N 30°03' W 090°34'0 0.0
2014-Apr-02 12:32N 30°03' W 090°34'  

Dump ship's entire track history

sailing weather and tide predictions

Josephine Anne — WDD9858 — position and weather